sensor_id;sensor_type;location;lat;lon;timestamp;pressure;altitude;pressure_sealevel;temperature;humidity
46583;BME280;32309;48.858;8.252;2023-10-08T00:01:41;101232.91;;;13.40;66.70
46583;BME280;32309;48.858;8.252;2023-10-08T00:03:48;101239.97;;;13.38;67.03
46583;BME280;32309;48.858;8.252;2023-10-08T00:05:49;101233.84;;;13.39;66.97
46583;BME280;32309;48.858;8.252;2023-10-08T00:07:52;101235.66;;;13.37;66.99
46583;BME280;32309;48.858;8.252;2023-10-08T00:09:55;101239.13;;;13.37;65.86
46583;BME280;32309;48.858;8.252;2023-10-08T00:11:56;101233.97;;;13.36;66.19
46583;BME280;32309;48.858;8.252;2023-10-08T00:13:56;101241.84;;;13.34;66.24
46583;BME280;32309;48.858;8.252;2023-10-08T00:15:56;101235.81;;;13.34;67.43
46583;BME280;32309;48.858;8.252;2023-10-08T00:17:56;101236.72;;;13.32;67.07
46583;BME280;32309;48.858;8.252;2023-10-08T00:19:58;101241.09;;;13.32;67.10
46583;BME280;32309;48.858;8.252;2023-10-08T00:22:02;101234.22;;;13.31;67.88
46583;BME280;32309;48.858;8.252;2023-10-08T00:24:05;101236.81;;;13.31;67.50
46583;BME280;32309;48.858;8.252;2023-10-08T00:26:07;101236.06;;;13.29;66.94
46583;BME280;32309;48.858;8.252;2023-10-08T00:28:09;101226.59;;;13.28;67.93
46583;BME280;32309;48.858;8.252;2023-10-08T00:30:12;101232.72;;;13.27;66.96
46583;BME280;32309;48.858;8.252;2023-10-08T00:32:17;101228.41;;;13.26;66.32
46583;BME280;32309;48.858;8.252;2023-10-08T00:34:18;101227.72;;;13.22;67.85
46583;BME280;32309;48.858;8.252;2023-10-08T00:36:19;101234.78;;;13.20;68.11
46583;BME280;32309;48.858;8.252;2023-10-08T00:38:20;101223.59;;;13.18;67.37
46583;BME280;32309;48.858;8.252;2023-10-08T00:40:20;101235.88;;;13.16;68.27
46583;BME280;32309;48.858;8.252;2023-10-08T00:42:21;101236.81;;;13.15;67.91
46583;BME280;32309;48.858;8.252;2023-10-08T00:44:21;101236.88;;;13.13;67.92
46583;BME280;32309;48.858;8.252;2023-10-08T00:46:29;101230.16;;;13.09;68.78
46583;BME280;32309;48.858;8.252;2023-10-08T00:48:32;101231.09;;;13.08;67.60
46583;BME280;32309;48.858;8.252;2023-10-08T00:50:36;101236.38;;;13.07;68.77
46583;BME280;32309;48.858;8.252;2023-10-08T00:52:42;101238.13;;;13.06;68.77
46583;BME280;32309;48.858;8.252;2023-10-08T00:54:59;101234.59;;;13.07;68.49
46583;BME280;32309;48.858;8.252;2023-10-08T00:57:05;101236.28;;;13.08;68.65
46583;BME280;32309;48.858;8.252;2023-10-08T00:59:05;101229.47;;;13.06;68.35
46583;BME280;32309;48.858;8.252;2023-10-08T01:01:06;101230.31;;;13.06;68.99
46583;BME280;32309;48.858;8.252;2023-10-08T01:03:10;101219.97;;;13.05;69.18
46583;BME280;32309;48.858;8.252;2023-10-08T01:05:17;101214.94;;;13.02;68.89
46583;BME280;32309;48.858;8.252;2023-10-08T01:07:25;101211.56;;;12.99;69.00
46583;BME280;32309;48.858;8.252;2023-10-08T01:09:27;101208.31;;;12.96;68.89
46583;BME280;32309;48.858;8.252;2023-10-08T01:11:37;101206.63;;;12.95;69.12
46583;BME280;32309;48.858;8.252;2023-10-08T01:13:46;101211.91;;;12.93;69.11
46583;BME280;32309;48.858;8.252;2023-10-08T01:15:46;101214.75;;;12.89;69.46
46583;BME280;32309;48.858;8.252;2023-10-08T01:17:50;101211.31;;;12.88;69.35
46583;BME280;32309;48.858;8.252;2023-10-08T01:20:10;101219.25;;;12.85;68.96
46583;BME280;32309;48.858;8.252;2023-10-08T01:22:29;101212.31;;;12.86;67.87
46583;BME280;32309;48.858;8.252;2023-10-08T01:24:29;101208.84;;;12.85;67.47
46583;BME280;32309;48.858;8.252;2023-10-08T01:26:36;101212.44;;;12.82;67.57
46583;BME280;32309;48.858;8.252;2023-10-08T01:28:39;101216.91;;;12.80;68.87
46583;BME280;32309;48.858;8.252;2023-10-08T01:30:43;101204.81;;;12.79;67.65
46583;BME280;32309;48.858;8.252;2023-10-08T01:32:46;101204.13;;;12.76;67.94
46583;BME280;32309;48.858;8.252;2023-10-08T01:34:46;101216.31;;;12.75;68.67
46583;BME280;32309;48.858;8.252;2023-10-08T01:36:47;101212.00;;;12.74;68.64
46583;BME280;32309;48.858;8.252;2023-10-08T01:38:47;101226.78;;;12.74;67.35
46583;BME280;32309;48.858;8.252;2023-10-08T01:40:49;101220.81;;;12.72;68.76
46583;BME280;32309;48.858;8.252;2023-10-08T01:42:51;101217.38;;;12.71;68.04
46583;BME280;32309;48.858;8.252;2023-10-08T01:44:51;101220.06;;;12.70;68.36
46583;BME280;32309;48.858;8.252;2023-10-08T01:46:54;101223.59;;;12.69;68.66
46583;BME280;32309;48.858;8.252;2023-10-08T01:48:55;101227.09;;;12.68;69.29
46583;BME280;32309;48.858;8.252;2023-10-08T01:51:08;101221.13;;;12.65;68.13
46583;BME280;32309;48.858;8.252;2023-10-08T01:53:11;101224.66;;;12.64;68.41
46583;BME280;32309;48.858;8.252;2023-10-08T01:55:12;101219.59;;;12.61;68.99
46583;BME280;32309;48.858;8.252;2023-10-08T01:57:17;101223.97;;;12.61;69.53
46583;BME280;32309;48.858;8.252;2023-10-08T01:59:17;101223.97;;;12.61;69.37
46583;BME280;32309;48.858;8.252;2023-10-08T02:01:20;101216.94;;;12.63;69.46
46583;BME280;32309;48.858;8.252;2023-10-08T02:03:20;101217.84;;;12.62;69.14
46583;BME280;32309;48.858;8.252;2023-10-08T02:05:22;101212.66;;;12.62;68.92
46583;BME280;32309;48.858;8.252;2023-10-08T02:07:23;101217.94;;;12.60;69.01
46583;BME280;32309;48.858;8.252;2023-10-08T02:09:23;101219.69;;;12.60;69.03
46583;BME280;32309;48.858;8.252;2023-10-08T02:11:26;101212.75;;;12.60;68.65
46583;BME280;32309;48.858;8.252;2023-10-08T02:13:27;101209.28;;;12.60;68.88
46583;BME280;32309;48.858;8.252;2023-10-08T02:15:27;101211.06;;;12.59;68.61
46583;BME280;32309;48.858;8.252;2023-10-08T02:17:28;101211.88;;;12.60;68.75
46583;BME280;32309;48.858;8.252;2023-10-08T02:19:28;101203.25;;;12.59;68.64
46583;BME280;32309;48.858;8.252;2023-10-08T02:21:28;101205.00;;;12.59;68.64
46583;BME280;32309;48.858;8.252;2023-10-08T02:23:28;101201.56;;;12.58;68.40
46583;BME280;32309;48.858;8.252;2023-10-08T02:25:29;101207.69;;;12.57;68.33
46583;BME280;32309;48.858;8.252;2023-10-08T02:27:29;101199.03;;;12.57;68.26
46583;BME280;32309;48.858;8.252;2023-10-08T02:29:30;101204.34;;;12.55;68.00
46583;BME280;32309;48.858;8.252;2023-10-08T02:31:30;101195.84;;;12.52;68.17
46583;BME280;32309;48.858;8.252;2023-10-08T02:33:30;101199.34;;;12.51;68.01
46583;BME280;32309;48.858;8.252;2023-10-08T02:35:30;101202.03;;;12.49;68.18
46583;BME280;32309;48.858;8.252;2023-10-08T02:37:31;101199.59;;;12.46;68.25
46583;BME280;32309;48.858;8.252;2023-10-08T02:39:31;101203.94;;;12.45;68.19
46583;BME280;32309;48.858;8.252;2023-10-08T02:41:32;101199.72;;;12.43;68.25
46583;BME280;32309;48.858;8.252;2023-10-08T02:43:32;101203.28;;;12.42;68.03
46583;BME280;32309;48.858;8.252;2023-10-08T02:45:36;101199.81;;;12.41;67.99
46583;BME280;32309;48.858;8.252;2023-10-08T02:47:42;101201.66;;;12.39;68.62
46583;BME280;32309;48.858;8.252;2023-10-08T02:49:45;101199.97;;;12.38;68.20
46583;BME280;32309;48.858;8.252;2023-10-08T02:51:51;101199.97;;;12.38;68.31
46583;BME280;32309;48.858;8.252;2023-10-08T02:53:51;101203.50;;;12.37;68.43
46583;BME280;32309;48.858;8.252;2023-10-08T02:55:52;101206.91;;;12.38;68.27
46583;BME280;32309;48.858;8.252;2023-10-08T02:57:52;101197.47;;;12.37;68.69
46583;BME280;32309;48.858;8.252;2023-10-08T02:59:53;101200.81;;;12.39;68.51
46583;BME280;32309;48.858;8.252;2023-10-08T03:01:54;101199.97;;;12.38;68.72
46583;BME280;32309;48.858;8.252;2023-10-08T03:03:57;101205.88;;;12.42;68.83
46583;BME280;32309;48.858;8.252;2023-10-08T03:06:09;101201.66;;;12.39;68.33
46583;BME280;32309;48.858;8.252;2023-10-08T03:08:15;101206.78;;;12.41;68.79
46583;BME280;32309;48.858;8.252;2023-10-08T03:10:20;101204.19;;;12.41;68.88
46583;BME280;32309;48.858;8.252;2023-10-08T03:12:20;101210.22;;;12.41;68.67
46583;BME280;32309;48.858;8.252;2023-10-08T03:14:25;101204.19;;;12.41;68.53
46583;BME280;32309;48.858;8.252;2023-10-08T03:16:41;101209.38;;;12.41;68.91
46583;BME280;32309;48.858;8.252;2023-10-08T03:18:42;101198.97;;;12.41;68.59
46583;BME280;32309;48.858;8.252;2023-10-08T03:20:44;101198.13;;;12.40;68.90
46583;BME280;32309;48.858;8.252;2023-10-08T03:22:46;101197.28;;;12.40;68.95
46583;BME280;32309;48.858;8.252;2023-10-08T03:24:46;101193.78;;;12.41;68.79
46583;BME280;32309;48.858;8.252;2023-10-08T03:26:49;101190.31;;;12.40;68.71
46583;BME280;32309;48.858;8.252;2023-10-08T03:28:55;101186.97;;;12.38;68.86
46583;BME280;32309;48.858;8.252;2023-10-08T03:30:57;101190.50;;;12.37;68.88
46583;BME280;32309;48.858;8.252;2023-10-08T03:33:04;101187.88;;;12.37;68.15
46583;BME280;32309;48.858;8.252;2023-10-08T03:35:10;101184.50;;;12.35;68.60
46583;BME280;32309;48.858;8.252;2023-10-08T03:37:10;101190.66;;;12.34;68.89
46583;BME280;32309;48.858;8.252;2023-10-08T03:39:12;101194.91;;;12.35;68.53
46583;BME280;32309;48.858;8.252;2023-10-08T03:41:16;101189.72;;;12.35;68.22
46583;BME280;32309;48.858;8.252;2023-10-08T03:43:17;101193.25;;;12.34;68.62
46583;BME280;32309;48.858;8.252;2023-10-08T03:45:25;101200.13;;;12.35;68.11
46583;BME280;32309;48.858;8.252;2023-10-08T03:47:44;101203.66;;;12.34;68.53
46583;BME280;32309;48.858;8.252;2023-10-08T03:49:46;101194.91;;;12.35;68.62
46583;BME280;32309;48.858;8.252;2023-10-08T03:51:46;101192.31;;;12.35;68.90
46583;BME280;32309;48.858;8.252;2023-10-08T03:53:48;101194.88;;;12.37;68.37
46583;BME280;32309;48.858;8.252;2023-10-08T03:55:58;101194.91;;;12.35;67.85
46583;BME280;32309;48.858;8.252;2023-10-08T03:58:00;101197.47;;;12.37;68.95
46583;BME280;32309;48.858;8.252;2023-10-08T04:00:04;101198.22;;;12.39;69.10
46583;BME280;32309;48.858;8.252;2023-10-08T04:02:08;101200.81;;;12.39;68.92
46583;BME280;32309;48.858;8.252;2023-10-08T04:04:15;101199.06;;;12.39;68.31
46583;BME280;32309;48.858;8.252;2023-10-08T04:06:15;101204.19;;;12.41;68.84
46583;BME280;32309;48.858;8.252;2023-10-08T04:08:15;101198.13;;;12.40;69.23
46583;BME280;32309;48.858;8.252;2023-10-08T04:10:42;101197.38;;;12.38;69.34
46583;BME280;32309;48.858;8.252;2023-10-08T04:12:42;101188.72;;;12.38;69.07
46583;BME280;32309;48.858;8.252;2023-10-08T04:14:50;101186.19;;;12.36;69.33
46583;BME280;32309;48.858;8.252;2023-10-08T04:16:52;101182.78;;;12.36;69.36
46583;BME280;32309;48.858;8.252;2023-10-08T04:18:52;101181.09;;;12.35;69.48
46583;BME280;32309;48.858;8.252;2023-10-08T04:20:55;101182.00;;;12.34;69.24
46583;BME280;32309;48.858;8.252;2023-10-08T04:23:05;101177.72;;;12.32;69.20
46583;BME280;32309;48.858;8.252;2023-10-08T04:25:05;101168.25;;;12.31;69.50
46583;BME280;32309;48.858;8.252;2023-10-08T04:27:06;101172.50;;;12.32;69.68
46583;BME280;32309;48.858;8.252;2023-10-08T04:29:09;101168.09;;;12.35;69.53
46583;BME280;32309;48.858;8.252;2023-10-08T04:31:09;101171.53;;;12.35;69.41
46583;BME280;32309;48.858;8.252;2023-10-08T04:33:14;101177.66;;;12.34;69.63
46583;BME280;32309;48.858;8.252;2023-10-08T04:35:14;101173.38;;;12.33;69.58
46583;BME280;32309;48.858;8.252;2023-10-08T04:37:15;101174.28;;;12.32;69.56
46583;BME280;32309;48.858;8.252;2023-10-08T04:39:20;101161.28;;;12.32;69.92
46583;BME280;32309;48.858;8.252;2023-10-08T04:41:29;101170.00;;;12.31;69.94
46583;BME280;32309;48.858;8.252;2023-10-08T04:43:29;101164.88;;;12.29;69.90
46583;BME280;32309;48.858;8.252;2023-10-08T04:45:36;101171.00;;;12.28;69.67
46583;BME280;32309;48.858;8.252;2023-10-08T04:47:37;101179.78;;;12.26;69.92
46583;BME280;32309;48.858;8.252;2023-10-08T04:49:42;101182.53;;;12.23;69.37
46583;BME280;32309;48.858;8.252;2023-10-08T04:51:45;101184.41;;;12.21;69.48
46583;BME280;32309;48.858;8.252;2023-10-08T04:53:46;101182.78;;;12.18;69.69
46583;BME280;32309;48.858;8.252;2023-10-08T04:55:47;101182.00;;;12.16;69.52
46583;BME280;32309;48.858;8.252;2023-10-08T04:57:48;101175.13;;;12.15;69.29
46583;BME280;32309;48.858;8.252;2023-10-08T04:59:49;101179.56;;;12.13;68.83
46583;BME280;32309;48.858;8.252;2023-10-08T05:01:50;101182.16;;;12.13;69.15
46583;BME280;32309;48.858;8.252;2023-10-08T05:04:14;101186.44;;;12.14;69.00
46583;BME280;32309;48.858;8.252;2023-10-08T05:06:24;101188.19;;;12.13;68.92
46583;BME280;32309;48.858;8.252;2023-10-08T05:08:50;101189.97;;;12.13;69.00
46583;BME280;32309;48.858;8.252;2023-10-08T05:10:58;101190.97;;;12.10;69.18
46583;BME280;32309;48.858;8.252;2023-10-08T05:13:14;101196.22;;;12.09;69.52
46583;BME280;32309;48.858;8.252;2023-10-08T05:15:16;101186.66;;;12.09;69.74
46583;BME280;32309;48.858;8.252;2023-10-08T05:17:16;101186.66;;;12.09;69.10
46583;BME280;32309;48.858;8.252;2023-10-08T05:19:16;101191.03;;;12.09;69.98
46583;BME280;32309;48.858;8.252;2023-10-08T05:21:45;101191.09;;;12.07;69.94
46583;BME280;32309;48.858;8.252;2023-10-08T05:24:01;101199.81;;;12.06;70.19
46583;BME280;32309;48.858;8.252;2023-10-08T05:26:13;101198.06;;;12.07;70.09
46583;BME280;32309;48.858;8.252;2023-10-08T05:28:21;101208.38;;;12.08;70.04
46583;BME280;32309;48.858;8.252;2023-10-08T05:30:27;101215.34;;;12.08;70.18
46583;BME280;32309;48.858;8.252;2023-10-08T05:32:28;101214.44;;;12.09;70.11
46583;BME280;32309;48.858;8.252;2023-10-08T05:34:44;101203.16;;;12.08;69.80
46583;BME280;32309;48.858;8.252;2023-10-08T05:36:56;101210.22;;;12.06;70.68
46583;BME280;32309;48.858;8.252;2023-10-08T05:38:59;101211.97;;;12.06;70.65
46583;BME280;32309;48.858;8.252;2023-10-08T05:41:00;101215.47;;;12.05;70.38
46583;BME280;32309;48.858;8.252;2023-10-08T05:43:00;101213.81;;;12.04;70.54
46583;BME280;32309;48.858;8.252;2023-10-08T05:45:13;101212.19;;;12.01;70.29
46583;BME280;32309;48.858;8.252;2023-10-08T05:47:28;101209.72;;;11.98;70.42
46583;BME280;32309;48.858;8.252;2023-10-08T05:49:38;101213.25;;;11.97;70.55
46583;BME280;32309;48.858;8.252;2023-10-08T05:51:42;101218.38;;;11.98;70.38
46583;BME280;32309;48.858;8.252;2023-10-08T05:53:48;101221.88;;;11.97;70.24
46583;BME280;32309;48.858;8.252;2023-10-08T05:55:49;101222.72;;;11.98;69.87
46583;BME280;32309;48.858;8.252;2023-10-08T05:58:02;101227.16;;;11.96;69.85
46583;BME280;32309;48.858;8.252;2023-10-08T06:00:18;101226.25;;;11.97;69.38
46583;BME280;32309;48.858;8.252;2023-10-08T06:02:40;101227.16;;;11.96;69.95
46583;BME280;32309;48.858;8.252;2023-10-08T06:04:46;101221.06;;;11.97;69.58
46583;BME280;32309;48.858;8.252;2023-10-08T06:07:05;101223.66;;;11.97;69.62
46583;BME280;32309;48.858;8.252;2023-10-08T06:09:23;101218.56;;;11.94;69.52
46583;BME280;32309;48.858;8.252;2023-10-08T06:11:35;101222.06;;;11.93;69.68
46583;BME280;32309;48.858;8.252;2023-10-08T06:13:44;101221.22;;;11.92;69.63
46583;BME280;32309;48.858;8.252;2023-10-08T06:15:49;101216.03;;;11.92;69.40
46583;BME280;32309;48.858;8.252;2023-10-08T06:17:55;101221.16;;;11.94;69.27
46583;BME280;32309;48.858;8.252;2023-10-08T06:19:56;101213.31;;;11.95;69.67
46583;BME280;32309;48.858;8.252;2023-10-08T06:21:56;101213.25;;;11.97;69.36
46583;BME280;32309;48.858;8.252;2023-10-08T06:23:56;101208.81;;;11.99;69.32
46583;BME280;32309;48.858;8.252;2023-10-08T06:25:56;101204.53;;;11.98;69.12
46583;BME280;32309;48.858;8.252;2023-10-08T06:27:58;101205.38;;;11.98;69.60
46583;BME280;32309;48.858;8.252;2023-10-08T06:29:59;101200.94;;;12.01;69.45
46583;BME280;32309;48.858;8.252;2023-10-08T06:31:59;101212.13;;;12.03;69.19
46583;BME280;32309;48.858;8.252;2023-10-08T06:34:02;101210.25;;;12.05;69.43
46583;BME280;32309;48.858;8.252;2023-10-08T06:36:03;101214.56;;;12.06;69.46
46583;BME280;32309;48.858;8.252;2023-10-08T06:38:13;101204.09;;;12.07;69.91
46583;BME280;32309;48.858;8.252;2023-10-08T06:40:18;101213.47;;;12.10;69.50
46583;BME280;32309;48.858;8.252;2023-10-08T06:42:36;101215.09;;;12.12;69.42
46583;BME280;32309;48.858;8.252;2023-10-08T06:44:37;101215.94;;;12.13;68.87
46583;BME280;32309;48.858;8.252;2023-10-08T06:46:38;101214.19;;;12.13;69.22
46583;BME280;32309;48.858;8.252;2023-10-08T06:48:40;101224.50;;;12.15;69.35
46583;BME280;32309;48.858;8.252;2023-10-08T06:50:42;101221.81;;;12.17;69.50
46583;BME280;32309;48.858;8.252;2023-10-08T06:52:42;101222.69;;;12.17;69.38
46583;BME280;32309;48.858;8.252;2023-10-08T06:54:43;101225.97;;;12.21;68.71
46583;BME280;32309;48.858;8.252;2023-10-08T06:56:44;101218.84;;;12.24;69.49
46583;BME280;32309;48.858;8.252;2023-10-08T06:58:46;101229.16;;;12.26;69.39
46583;BME280;32309;48.858;8.252;2023-10-08T07:00:49;101228.34;;;12.25;69.20
46583;BME280;32309;48.858;8.252;2023-10-08T07:02:49;101229.13;;;12.27;68.89
46583;BME280;32309;48.858;8.252;2023-10-08T07:04:50;101236.66;;;12.32;69.63
46583;BME280;32309;48.858;8.252;2023-10-08T07:06:51;101234.59;;;12.39;69.40
46583;BME280;32309;48.858;8.252;2023-10-08T07:08:52;101239.72;;;12.40;69.21
46583;BME280;32309;48.858;8.252;2023-10-08T07:10:55;101248.22;;;12.44;68.85
46583;BME280;32309;48.858;8.252;2023-10-08T07:12:56;101247.06;;;12.49;68.97
46583;BME280;32309;48.858;8.252;2023-10-08T07:14:57;101248.53;;;12.55;69.02
46583;BME280;32309;48.858;8.252;2023-10-08T07:16:59;101242.94;;;12.63;68.89
46583;BME280;32309;48.858;8.252;2023-10-08T07:18:59;101242.78;;;12.66;68.37
46583;BME280;32309;48.858;8.252;2023-10-08T07:21:03;101246.00;;;12.71;68.40
46583;BME280;32309;48.858;8.252;2023-10-08T07:23:07;101254.34;;;12.78;68.63
46583;BME280;32309;48.858;8.252;2023-10-08T07:25:18;101265.44;;;12.81;68.51
46583;BME280;32309;48.858;8.252;2023-10-08T07:27:21;101247.22;;;12.81;68.35
46583;BME280;32309;48.858;8.252;2023-10-08T07:29:30;101265.25;;;12.85;68.36
46583;BME280;32309;48.858;8.252;2023-10-08T07:31:32;101264.25;;;12.87;68.48
46583;BME280;32309;48.858;8.252;2023-10-08T07:33:34;101262.41;;;12.89;68.40
46583;BME280;32309;48.858;8.252;2023-10-08T07:35:37;101275.19;;;12.94;68.71
46583;BME280;32309;48.858;8.252;2023-10-08T07:37:39;101270.59;;;12.99;68.55
46583;BME280;32309;48.858;8.252;2023-10-08T07:39:39;101280.75;;;13.04;68.61
46583;BME280;32309;48.858;8.252;2023-10-08T07:41:46;101283.03;;;13.10;68.18
46583;BME280;32309;48.858;8.252;2023-10-08T07:43:48;101281.03;;;13.15;68.18
46583;BME280;32309;48.858;8.252;2023-10-08T07:45:58;101282.47;;;13.21;67.99
46583;BME280;32309;48.858;8.252;2023-10-08T07:48:00;101283.00;;;13.27;67.76
46583;BME280;32309;48.858;8.252;2023-10-08T07:50:00;101278.38;;;13.32;67.70
46583;BME280;32309;48.858;8.252;2023-10-08T07:52:01;101272.91;;;13.39;67.33
46583;BME280;32309;48.858;8.252;2023-10-08T07:54:01;101274.31;;;13.44;67.11
46583;BME280;32309;48.858;8.252;2023-10-08T07:56:01;101273.22;;;13.48;66.71
46583;BME280;32309;48.858;8.252;2023-10-08T07:58:03;101272.16;;;13.53;66.68
46583;BME280;32309;48.858;8.252;2023-10-08T08:00:04;101269.31;;;13.57;67.00
46583;BME280;32309;48.858;8.252;2023-10-08T08:02:22;101267.19;;;13.64;66.66
46583;BME280;32309;48.858;8.252;2023-10-08T08:04:27;101266.03;;;13.70;66.55
46583;BME280;32309;48.858;8.252;2023-10-08T08:06:33;101268.28;;;13.76;66.60
46583;BME280;32309;48.858;8.252;2023-10-08T08:08:34;101270.47;;;13.84;66.42
46583;BME280;32309;48.858;8.252;2023-10-08T08:10:35;101271.06;;;13.89;66.76
46583;BME280;32309;48.858;8.252;2023-10-08T08:12:37;101276.00;;;13.93;66.42
46583;BME280;32309;48.858;8.252;2023-10-08T08:14:37;101274.00;;;13.98;65.75
46583;BME280;32309;48.858;8.252;2023-10-08T08:16:41;101271.06;;;14.05;65.77
46583;BME280;32309;48.858;8.252;2023-10-08T08:18:47;101274.06;;;14.13;65.13
46583;BME280;32309;48.858;8.252;2023-10-08T08:20:49;101277.16;;;14.20;65.75
46583;BME280;32309;48.858;8.252;2023-10-08T08:25:21;101285.91;;;14.35;64.93
46583;BME280;32309;48.858;8.252;2023-10-08T08:27:36;101283.19;;;14.36;64.54
46583;BME280;32309;48.858;8.252;2023-10-08T08:29:38;101296.03;;;14.39;64.49
46583;BME280;32309;48.858;8.252;2023-10-08T08:34:27;101304.63;;;14.41;63.21
46583;BME280;32309;48.858;8.252;2023-10-08T08:36:31;101307.88;;;14.45;63.82
46583;BME280;32309;48.858;8.252;2023-10-08T08:38:37;101313.78;;;14.48;63.04
46583;BME280;32309;48.858;8.252;2023-10-08T08:40:40;101312.66;;;14.53;63.19
46583;BME280;32309;48.858;8.252;2023-10-08T08:42:40;101310.72;;;14.56;62.45
46583;BME280;32309;48.858;8.252;2023-10-08T08:44:41;101315.69;;;14.61;63.06
46583;BME280;32309;48.858;8.252;2023-10-08T08:46:49;101308.38;;;14.68;62.72
46583;BME280;32309;48.858;8.252;2023-10-08T08:48:53;101296.66;;;14.75;63.20
46583;BME280;32309;48.858;8.252;2023-10-08T08:50:54;101301.41;;;14.83;62.19
46583;BME280;32309;48.858;8.252;2023-10-08T08:52:54;101304.50;;;14.89;62.02
46583;BME280;32309;48.858;8.252;2023-10-08T08:54:55;101308.50;;;14.95;62.53
46583;BME280;32309;48.858;8.252;2023-10-08T08:56:55;101321.31;;;15.00;61.57
46583;BME280;32309;48.858;8.252;2023-10-08T08:58:55;101315.06;;;15.02;61.57
46583;BME280;32309;48.858;8.252;2023-10-08T09:00:57;101318.25;;;15.07;61.21
46583;BME280;32309;48.858;8.252;2023-10-08T09:02:58;101309.38;;;15.10;61.30
46583;BME280;32309;48.858;8.252;2023-10-08T09:04:58;101315.72;;;15.20;61.06
46583;BME280;32309;48.858;8.252;2023-10-08T09:06:59;101308.38;;;15.27;61.00
46583;BME280;32309;48.858;8.252;2023-10-08T09:09:04;101300.03;;;15.35;61.69
46583;BME280;32309;48.858;8.252;2023-10-08T09:11:22;101303.03;;;15.43;61.47
46583;BME280;32309;48.858;8.252;2023-10-08T09:13:26;101286.97;;;15.49;60.83
46583;BME280;32309;48.858;8.252;2023-10-08T09:15:26;101294.16;;;15.60;60.21
46583;BME280;32309;48.858;8.252;2023-10-08T09:17:27;101299.75;;;15.68;59.00
46583;BME280;32309;48.858;8.252;2023-10-08T09:19:27;101301.22;;;15.72;59.91
46583;BME280;32309;48.858;8.252;2023-10-08T09:21:27;101297.28;;;15.79;59.50
46583;BME280;32309;48.858;8.252;2023-10-08T09:23:27;101298.63;;;15.87;59.21
46583;BME280;32309;48.858;8.252;2023-10-08T09:25:28;101298.13;;;15.94;58.01
46583;BME280;32309;48.858;8.252;2023-10-08T09:27:32;101294.38;;;15.99;57.26
46583;BME280;32309;48.858;8.252;2023-10-08T09:29:33;101295.09;;;16.01;58.21
46583;BME280;32309;48.858;8.252;2023-10-08T09:31:39;101296.94;;;16.13;57.15
46583;BME280;32309;48.858;8.252;2023-10-08T09:33:40;101299.13;;;16.19;57.68
46583;BME280;32309;48.858;8.252;2023-10-08T09:35:42;101297.06;;;16.24;57.82
46583;BME280;32309;48.858;8.252;2023-10-08T09:37:43;101289.97;;;16.26;56.77
46583;BME280;32309;48.858;8.252;2023-10-08T09:39:44;101294.72;;;16.34;56.68
46583;BME280;32309;48.858;8.252;2023-10-08T09:41:46;101289.06;;;16.40;56.91
46583;BME280;32309;48.858;8.252;2023-10-08T09:43:47;101293.78;;;16.48;58.51
46583;BME280;32309;48.858;8.252;2023-10-08T09:45:58;101296.09;;;16.53;56.63
46583;BME280;32309;48.858;8.252;2023-10-08T09:48:00;101287.94;;;16.57;57.18
46583;BME280;32309;48.858;8.252;2023-10-08T09:50:02;101293.69;;;16.62;56.64
46583;BME280;32309;48.858;8.252;2023-10-08T09:52:07;101293.94;;;16.72;58.30
46583;BME280;32309;48.858;8.252;2023-10-08T09:54:11;101283.78;;;16.80;56.14
46583;BME280;32309;48.858;8.252;2023-10-08T09:56:15;101282.63;;;16.85;57.40
46583;BME280;32309;48.858;8.252;2023-10-08T09:58:18;101288.22;;;16.93;56.72
46583;BME280;32309;48.858;8.252;2023-10-08T10:00:18;101278.25;;;16.98;56.17
46583;BME280;32309;48.858;8.252;2023-10-08T10:02:29;101276.47;;;17.11;54.25
46583;BME280;32309;48.858;8.252;2023-10-08T10:04:31;101274.78;;;17.23;54.31
46583;BME280;32309;48.858;8.252;2023-10-08T10:06:35;101277.59;;;17.33;54.23
46583;BME280;32309;48.858;8.252;2023-10-08T10:08:37;101265.97;;;17.37;54.05
46583;BME280;32309;48.858;8.252;2023-10-08T10:30:08;101279.59;;;18.04;53.05
46583;BME280;32309;48.858;8.252;2023-10-08T10:32:15;101272.13;;;18.10;53.61
46583;BME280;32309;48.858;8.252;2023-10-08T10:34:20;101273.69;;;18.13;54.11
46583;BME280;32309;48.858;8.252;2023-10-08T10:36:20;101267.38;;;18.16;55.36
46583;BME280;32309;48.858;8.252;2023-10-08T10:38:22;101272.06;;;18.23;53.60
46583;BME280;32309;48.858;8.252;2023-10-08T10:40:26;101267.53;;;18.25;56.04
46583;BME280;32309;48.858;8.252;2023-10-08T10:42:39;101277.34;;;18.35;54.16
46583;BME280;32309;48.858;8.252;2023-10-08T10:44:47;101272.97;;;18.46;54.95
46583;BME280;32309;48.858;8.252;2023-10-08T10:46:51;101271.34;;;18.57;53.03
46583;BME280;32309;48.858;8.252;2023-10-08T10:48:51;101275.28;;;18.62;53.97
46583;BME280;32309;48.858;8.252;2023-10-08T10:51:17;101268.72;;;18.68;52.41
46583;BME280;32309;48.858;8.252;2023-10-08T10:53:19;101271.72;;;18.75;52.85
46583;BME280;32309;48.858;8.252;2023-10-08T10:55:19;101272.19;;;18.80;53.01
46583;BME280;32309;48.858;8.252;2023-10-08T10:57:36;101270.69;;;18.89;51.52
46583;BME280;32309;48.858;8.252;2023-10-08T10:59:41;101268.78;;;18.91;52.65
46583;BME280;32309;48.858;8.252;2023-10-08T11:01:52;101260.56;;;18.95;54.04
46583;BME280;32309;48.858;8.252;2023-10-08T11:03:56;101256.97;;;19.08;51.33
46583;BME280;32309;48.858;8.252;2023-10-08T11:05:57;101257.69;;;19.10;51.40
46583;BME280;32309;48.858;8.252;2023-10-08T11:08:06;101258.38;;;19.12;53.66
46583;BME280;32309;48.858;8.252;2023-10-08T11:10:19;101248.84;;;19.22;51.28
46583;BME280;32309;48.858;8.252;2023-10-08T11:12:24;101252.53;;;19.31;50.78
46583;BME280;32309;48.858;8.252;2023-10-08T11:14:32;101250.50;;;19.35;51.08